Station Historical Data
Daily Summary for July 20, 2012 Units:  English    Metric   Both
« Previous Day
Next Day »
Daily Weekly Monthly Yearly Custom
  High: Low: Average:
Temperature: 88.7 °F 69.5 °F 79.3 °F
Dew Point: 78.6 °F 67.4 °F 74 °F
Humidity: 93% 70% 84%
Wind Speed: 12.0mph 0.0mph 3.8mph
Wind Gust: 17.0mph - -
Wind- - South
Pressure: 29.95 in 29.84 in -
Precipitation: 0.38 in    
Historical Graphs
 
 
Tabular Data for July 20, 2012
Time Temperature Dew Point Pressure Wind Wind Speed Wind Gust Humidity Rainfall Rate (Hourly) Conditions
00:00 78.1 °F 74.9 °F 29.90 in SE 1.0 mph 6.0 mph 90% 0.00 in
00:01 78.1 °F 74.9 °F 29.90 in SSE 2.0 mph 4.0 mph 90% 0.00 in
00:06 78.0 °F 74.8 °F 29.90 in South 1.0 mph 3.0 mph 90% 0.00 in
00:11 77.9 °F 75.1 °F 29.90 in SE 3.0 mph 4.0 mph 91% 0.00 in
00:16 77.9 °F 75.1 °F 29.90 in South 3.0 mph 5.0 mph 91% 0.00 in
00:21 78.0 °F 75.2 °F 29.90 in South 4.0 mph 6.0 mph 91% 0.00 in
00:26 78.0 °F 75.2 °F 29.90 in SSE 4.0 mph 4.0 mph 91% 0.00 in
00:31 77.9 °F 75.1 °F 29.90 in SW 2.0 mph 4.0 mph 91% 0.00 in
00:36 77.9 °F 75.1 °F 29.91 in SSW 2.0 mph 3.0 mph 91% 0.00 in
00:41 77.8 °F 75.0 °F 29.91 in South 1.0 mph 3.0 mph 91% 0.00 in
00:46 77.7 °F 74.9 °F 29.91 in SSW 3.0 mph 3.0 mph 91% 0.00 in
00:51 77.6 °F 74.8 °F 29.91 in South 1.0 mph 4.0 mph 91% 0.00 in
00:56 77.5 °F 75.0 °F 29.91 in SSW 2.0 mph 3.0 mph 92% 0.00 in
01:01 77.5 °F 75.0 °F 29.92 in Calm   2.0 mph 92% 0.00 in
01:06 77.4 °F 74.9 °F 29.92 in SSW 2.0 mph 3.0 mph 92% 0.00 in
01:11 77.4 °F 74.9 °F 29.92 in SSE 2.0 mph 4.0 mph 92% 0.00 in
01:16 77.4 °F 74.9 °F 29.91 in SSE 2.0 mph 3.0 mph 92% 0.00 in
01:21 77.3 °F 74.8 °F 29.91 in SW 3.0 mph 3.0 mph 92% 0.00 in
01:26 77.2 °F 74.7 °F 29.91 in WSW 4.0 mph 4.0 mph 92% 0.00 in
01:31 77.2 °F 74.7 °F 29.91 in SW 1.0 mph 3.0 mph 92% 0.00 in
01:36 77.1 °F 74.6 °F 29.90 in South 2.0 mph 4.0 mph 92% 0.00 in
01:41 77.1 °F 74.6 °F 29.90 in SSW 3.0 mph 5.0 mph 92% 0.00 in
01:46 77.0 °F 74.2 °F 29.91 in SW 2.0 mph 4.0 mph 91% 0.00 in
01:51 77.0 °F 74.5 °F 29.91 in South 3.0 mph 3.0 mph 92% 0.00 in
01:57 77.0 °F 74.5 °F 29.91 in SW 2.0 mph 3.0 mph 92% 0.00 in
02:02 76.9 °F 74.4 °F 29.91 in Calm   2.0 mph 92% 0.00 in
02:07 76.8 °F 74.3 °F 29.92 in WSW 1.0 mph 2.0 mph 92% 0.00 in
02:12 76.7 °F 74.2 °F 29.92 in West 1.0 mph 1.0 mph 92% 0.00 in
02:17 76.7 °F 73.9 °F 29.91 in WSW 2.0 mph 4.0 mph 91% 0.00 in
02:22 76.6 °F 74.1 °F 29.91 in WSW 2.0 mph 2.0 mph 92% 0.00 in
02:27 76.5 °F 73.7 °F 29.91 in SW 2.0 mph 2.0 mph 91% 0.00 in
02:32 76.5 °F 74.0 °F 29.91 in WSW 2.0 mph 4.0 mph 92% 0.00 in
02:37 76.5 °F 73.7 °F 29.91 in SW 4.0 mph 5.0 mph 91% 0.00 in
02:42 76.4 °F 73.9 °F 29.91 in WSW 2.0 mph 4.0 mph 92% 0.00 in
02:47 76.3 °F 73.8 °F 29.90 in SSW 3.0 mph 5.0 mph 92% 0.00 in
02:52 76.1 °F 73.6 °F 29.90 in SSW 3.0 mph 5.0 mph 92% 0.00 in
02:57 76.0 °F 73.5 °F 29.89 in SW 4.0 mph 5.0 mph 92% 0.00 in
03:02 75.8 °F 73.3 °F 29.89 in SW 2.0 mph 5.0 mph 92% 0.00 in
03:07 75.7 °F 73.2 °F 29.89 in SW 5.0 mph 5.0 mph 92% 0.00 in
03:12 75.6 °F 73.1 °F 29.89 in WSW 5.0 mph 7.0 mph 92% 0.00 in
03:17 75.6 °F 73.1 °F 29.89 in SW 4.0 mph 5.0 mph 92% 0.00 in
03:22 75.5 °F 73.0 °F 29.89 in WSW 5.0 mph 6.0 mph 92% 0.00 in
03:27 75.5 °F 73.0 °F 29.90 in WSW 4.0 mph 5.0 mph 92% 0.00 in
03:32 75.5 °F 73.0 °F 29.90 in WSW 1.0 mph 5.0 mph 92% 0.00 in
03:38 75.4 °F 72.9 °F 29.90 in WSW 3.0 mph 4.0 mph 92% 0.00 in
03:43 75.3 °F 72.8 °F 29.90 in SW 1.0 mph 3.0 mph 92% 0.00 in
03:48 75.2 °F 72.7 °F 29.90 in SW 1.0 mph 4.0 mph 92% 0.00 in
03:53 75.2 °F 72.7 °F 29.91 in WSW 2.0 mph 4.0 mph 92% 0.00 in
03:58 75.2 °F 72.7 °F 29.91 in WSW 1.0 mph 3.0 mph 92% 0.00 in
04:03 75.2 °F 72.7 °F 29.91 in Calm   1.0 mph 92% 0.00 in
04:08 75.1 °F 72.3 °F 29.92 in WSW 1.0 mph 1.0 mph 91% 0.00 in
04:13 75.2 °F 72.4 °F 29.92 in Calm   1.0 mph 91% 0.00 in
04:18 75.2 °F 72.4 °F 29.92 in SW 3.0 mph 4.0 mph 91% 0.00 in
04:23 75.3 °F 72.5 °F 29.92 in WSW 1.0 mph 2.0 mph 91% 0.00 in
04:28 75.3 °F 72.5 °F 29.94 in North 3.0 mph 9.0 mph 91% 0.00 in
04:33 75.4 °F 72.6 °F 29.94 in NNE 9.0 mph 12.0 mph 91% 0.00 in
04:38 75.5 °F 72.7 °F 29.93 in NNE 3.0 mph 5.0 mph 91% 0.00 in
04:43 75.7 °F 72.9 °F 29.94 in ENE 3.0 mph 8.0 mph 91% 0.00 in
04:48 75.8 °F 71.7 °F 29.94 in NNE 10.0 mph 14.0 mph 87% 0.00 in
04:53 75.2 °F 70.7 °F 29.95 in NE 4.0 mph 8.0 mph 86% 0.00 in
04:58 74.8 °F 70.0 °F 29.95 in NE 5.0 mph 12.0 mph 85% 0.00 in
05:03 74.2 °F 69.4 °F 29.95 in NNE 10.0 mph 11.0 mph 85% 0.00 in
05:08 73.9 °F 69.4 °F 29.94 in ENE 2.0 mph 7.0 mph 86% 0.00 in
05:13 73.5 °F 69.1 °F 29.94 in NE 5.0 mph 10.0 mph 86% 0.00 in
05:18 73.3 °F 68.9 °F 29.95 in NE 3.0 mph 10.0 mph 86% 0.00 in
05:23 73.1 °F 69.0 °F 29.94 in East 7.0 mph 9.0 mph 87% 0.00 in
05:28 72.8 °F 68.7 °F 29.94 in NE 4.0 mph 9.0 mph 87% 0.00 in
05:33 72.7 °F 68.6 °F 29.94 in ESE 2.0 mph 8.0 mph 87% 0.00 in
05:38 72.5 °F 68.8 °F 29.94 in ESE 7.0 mph 8.0 mph 88% 0.00 in
05:43 72.4 °F 68.7 °F 29.94 in NE 7.0 mph 8.0 mph 88% 0.00 in
05:48 72.3 °F 68.6 °F 29.94 in NE 5.0 mph 8.0 mph 88% 0.00 in
05:53 72.2 °F 68.8 °F 29.95 in NE 6.0 mph 7.0 mph 89% 0.00 in
05:58 72.2 °F 68.8 °F 29.95 in ENE 3.0 mph 7.0 mph 89% 0.00 in
06:03 72.2 °F 68.8 °F 29.95 in ENE 2.0 mph 3.0 mph 89% 0.00 in
06:08 72.1 °F 68.7 °F 29.95 in NE 5.0 mph 7.0 mph 89% 0.00 in
06:13 71.9 °F 68.8 °F 29.95 in ENE 4.0 mph 7.0 mph 90% 0.00 in
06:18 71.5 °F 68.7 °F 29.94 in East 7.0 mph 8.0 mph 91% 0.86 in
06:23 70.9 °F 68.2 °F 29.94 in NNE 2.0 mph 9.0 mph 91% 1.17 in
06:28 70.4 °F 68.0 °F 29.94 in East 1.0 mph 4.0 mph 92% 0.14 in
06:33 70.1 °F 67.7 °F 29.94 in NE 3.0 mph 4.0 mph 92% 0.06 in
06:38 70.0 °F 67.6 °F 29.93 in ENE 5.0 mph 5.0 mph 92% 0.04 in
06:43 69.9 °F 67.8 °F 29.93 in East 2.0 mph 4.0 mph 93% 0.04 in
06:48 69.8 °F 67.7 °F 29.93 in ESE 4.0 mph 5.0 mph 93% 0.04 in
06:53 69.7 °F 67.6 °F 29.93 in SE 3.0 mph 5.0 mph 93% 0.05 in
06:58 69.7 °F 67.6 °F 29.93 in SE 2.0 mph 4.0 mph 93% 0.05 in
07:04 69.7 °F 67.6 °F 29.93 in SE 1.0 mph 1.0 mph 93% 0.05 in
07:09 69.7 °F 67.6 °F 29.93 in ESE 2.0 mph 3.0 mph 93% 0.50 in
07:14 69.7 °F 67.6 °F 29.94 in Calm   3.0 mph 93% 0.15 in
07:19 69.6 °F 67.5 °F 29.94 in North 2.0 mph 3.0 mph 93% 0.14 in
07:24 69.6 °F 67.5 °F 29.94 in East 2.0 mph 3.0 mph 93% 0.14 in
07:29 69.6 °F 67.5 °F 29.94 in NE 1.0 mph 3.0 mph 93% 0.35 in
07:34 69.5 °F 67.4 °F 29.94 in Calm   3.0 mph 93% 0.12 in
07:39 69.5 °F 67.4 °F 29.94 in SSE 3.0 mph 5.0 mph 93% 0.06 in
07:44 69.5 °F 67.4 °F 29.93 in ESE 7.0 mph 7.0 mph 93% 0.38 in
07:49 69.5 °F 67.4 °F 29.93 in East 6.0 mph 9.0 mph 93% 0.09 in
07:54 69.6 °F 67.5 °F 29.93 in ESE 6.0 mph 11.0 mph 93% 0.05 in
07:59 69.7 °F 67.6 °F 29.93 in SE 4.0 mph 7.0 mph 93% 0.04 in
08:04 69.8 °F 67.7 °F 29.93 in ESE 5.0 mph 9.0 mph 93% 0.00 in
08:09 69.9 °F 67.8 °F 29.93 in ESE 5.0 mph 6.0 mph 93% 0.00 in
08:14 70.0 °F 67.9 °F 29.93 in SE 4.0 mph 5.0 mph 93% 0.00 in
08:19 70.1 °F 68.0 °F 29.93 in SE 4.0 mph 7.0 mph 93% 0.00 in
08:24 70.2 °F 68.1 °F 29.93 in SE 4.0 mph 7.0 mph 93% 0.00 in
08:29 70.3 °F 68.2 °F 29.93 in East 5.0 mph 6.0 mph 93% 0.00 in
08:34 70.4 °F 68.0 °F 29.93 in ESE 3.0 mph 5.0 mph 92% 0.00 in
08:39 70.5 °F 68.4 °F 29.93 in ESE 7.0 mph 8.0 mph 93% 0.00 in
08:44 70.5 °F 68.4 °F 29.94 in SE 3.0 mph 7.0 mph 93% 0.00 in
08:49 70.6 °F 68.5 °F 29.94 in ESE 5.0 mph 6.0 mph 93% 0.00 in
08:54 70.7 °F 68.6 °F 29.93 in SSE 6.0 mph 8.0 mph 93% 0.00 in
08:59 70.8 °F 68.4 °F 29.93 in SSE 7.0 mph 9.0 mph 92% 0.00 in
09:04 71.1 °F 68.7 °F 29.93 in SE 8.0 mph 11.0 mph 92% 0.00 in
09:09 71.6 °F 69.2 °F 29.92 in SE 7.0 mph 11.0 mph 92% 0.00 in
09:14 72.1 °F 69.7 °F 29.93 in SE 7.0 mph 11.0 mph 92% 0.00 in
09:19 72.6 °F 70.2 °F 29.92 in SSE 6.0 mph 13.0 mph 92% 0.00 in
09:24 72.9 °F 70.4 °F 29.92 in SE 11.0 mph 15.0 mph 92% 0.00 in
09:29 73.5 °F 71.0 °F 29.92 in SE 6.0 mph 10.0 mph 92% 0.00 in
09:34 74.0 °F 71.5 °F 29.92 in SSE 10.0 mph 12.0 mph 92% 0.00 in
09:39 74.4 °F 71.3 °F 29.91 in SE 11.0 mph 17.0 mph 90% 0.00 in
09:44 75.0 °F 72.2 °F 29.91 in SSE 8.0 mph 10.0 mph 91% 0.00 in
09:49 75.5 °F 72.7 °F 29.92 in SE 8.0 mph 10.0 mph 91% 0.00 in
09:54 75.9 °F 72.4 °F 29.92 in SE 11.0 mph 11.0 mph 89% 0.00 in
09:59 76.1 °F 72.3 °F 29.91 in SSE 6.0 mph 11.0 mph 88% 0.00 in
10:04 76.5 °F 72.7 °F 29.91 in SSE 5.0 mph 8.0 mph 88% 0.00 in
10:09 76.8 °F 72.6 °F 29.91 in SE 6.0 mph 11.0 mph 87% 0.00 in
10:15 77.2 °F 72.7 °F 29.91 in SSE 2.0 mph 7.0 mph 86% 0.00 in
10:20 77.3 °F 72.8 °F 29.91 in South 3.0 mph 9.0 mph 86% 0.00 in
10:25 77.5 °F 73.0 °F 29.91 in South 4.0 mph 8.0 mph 86% 0.00 in
10:30 77.8 °F 72.2 °F 29.92 in SSE 8.0 mph 11.0 mph 83% 0.00 in
10:35 77.7 °F 72.5 °F 29.92 in SW 7.0 mph 10.0 mph 84% 0.00 in
10:40 77.6 °F 72.4 °F 29.91 in SE 12.0 mph 12.0 mph 84% 0.00 in
10:45 77.7 °F 72.1 °F 29.92 in South 8.0 mph 9.0 mph 83% 0.00 in
10:50 77.9 °F 72.3 °F 29.92 in South 4.0 mph 10.0 mph 83% 0.00 in
10:55 78.3 °F 72.7 °F 29.92 in SE 5.0 mph 9.0 mph 83% 0.00 in
11:00 78.5 °F 72.9 °F 29.92 in South 5.0 mph 10.0 mph 83% 0.00 in
11:05 78.6 °F 73.4 °F 29.92 in SSE 9.0 mph 12.0 mph 84% 0.00 in
11:10 78.6 °F 73.4 °F 29.92 in SSW 2.0 mph 10.0 mph 84% 0.00 in
11:15 78.9 °F 73.3 °F 29.91 in SSE 3.0 mph 7.0 mph 83% 0.00 in
11:20 79.2 °F 73.2 °F 29.91 in SW 3.0 mph 7.0 mph 82% 0.00 in
11:25 79.5 °F 73.5 °F 29.91 in SSW 3.0 mph 11.0 mph 82% 0.00 in
11:30 79.8 °F 73.1 °F 29.91 in South 5.0 mph 9.0 mph 80% 0.00 in
11:35 80.1 °F 73.0 °F 29.92 in SSE 7.0 mph 12.0 mph 79% 0.00 in
11:40 80.2 °F 72.3 °F 29.92 in SSW 4.0 mph 11.0 mph 77% 0.00 in
11:45 80.4 °F 73.3 °F 29.91 in SW 6.0 mph 9.0 mph 79% 0.00 in
11:50 80.9 °F 73.4 °F 29.92 in SSE 4.0 mph 10.0 mph 78% 0.00 in
11:55 81.0 °F 73.1 °F 29.91 in SSW 7.0 mph 11.0 mph 77% 0.00 in
12:00 81.2 °F 74.1 °F 29.91 in SW 6.0 mph 8.0 mph 79% 0.00 in
12:05 81.5 °F 74.0 °F 29.91 in SSW 3.0 mph 10.0 mph 78% 0.00 in
12:10 81.7 °F 74.9 °F 29.91 in South 6.0 mph 7.0 mph 80% 0.00 in
12:15 81.8 °F 74.7 °F 29.91 in SSW 7.0 mph 11.0 mph 79% 0.00 in
12:20 81.5 °F 74.0 °F 29.91 in South 6.0 mph 12.0 mph 78% 0.00 in
12:25 81.4 °F 74.3 °F 29.91 in SSE 7.0 mph 11.0 mph 79% 0.00 in
12:30 81.7 °F 75.3 °F 29.91 in SW 6.0 mph 11.0 mph 81% 0.00 in
12:35 81.7 °F 74.6 °F 29.91 in WSW 7.0 mph 13.0 mph 79% 0.00 in
12:40 82.2 °F 74.7 °F 29.91 in South 7.0 mph 12.0 mph 78% 0.00 in
12:45 82.4 °F 74.9 °F 29.91 in SSW 5.0 mph 10.0 mph 78% 0.00 in
12:50 82.7 °F 74.8 °F 29.91 in SW 5.0 mph 9.0 mph 77% 0.00 in
12:55 83.0 °F 75.1 °F 29.91 in SE 5.0 mph 7.0 mph 77% 0.00 in
13:00 83.4 °F 75.8 °F 29.90 in SSW 3.0 mph 12.0 mph 78% 0.00 in
13:05 83.6 °F 76.0 °F 29.90 in South 5.0 mph 9.0 mph 78% 0.00 in
13:10 83.8 °F 75.8 °F 29.90 in WSW 9.0 mph 10.0 mph 77% 0.00 in
13:15 83.8 °F 75.4 °F 29.90 in SSW 3.0 mph 9.0 mph 76% 0.00 in
13:20 84.3 °F 75.9 °F 29.90 in South 9.0 mph 9.0 mph 76% 0.00 in
13:25 84.4 °F 75.6 °F 29.90 in SE 4.0 mph 8.0 mph 75% 0.00 in
13:30 84.6 °F 75.8 °F 29.90 in SSW 7.0 mph 10.0 mph 75% 0.00 in
13:35 84.1 °F 76.5 °F 29.90 in South 3.0 mph 7.0 mph 78% 0.00 in
13:40 84.6 °F 75.4 °F 29.90 in WSW 5.0 mph 9.0 mph 74% 0.00 in
13:45 84.8 °F 76.4 °F 29.90 in SW 5.0 mph 10.0 mph 76% 0.00 in
13:50 85.3 °F 75.7 °F 29.90 in South 6.0 mph 9.0 mph 73% 0.00 in
13:56 85.3 °F 76.1 °F 29.90 in SSE 10.0 mph 10.0 mph 74% 0.00 in
14:01 85.3 °F 76.1 °F 29.89 in SE 5.0 mph 7.0 mph 74% 0.00 in
14:06 85.7 °F 76.1 °F 29.89 in SW 2.0 mph 7.0 mph 73% 0.00 in
14:11 86.0 °F 76.8 °F 29.89 in SE 3.0 mph 5.0 mph 74% 0.00 in
14:16 86.1 °F 77.7 °F 29.89 in SSW 1.0 mph 5.0 mph 76% 0.00 in
14:21 86.4 °F 77.5 °F 29.89 in SSE 4.0 mph 7.0 mph 75% 0.00 in
14:26 86.6 °F 78.1 °F 29.89 in SSW 4.0 mph 6.0 mph 76% 0.00 in
14:31 86.4 °F 76.3 °F 29.89 in South 3.0 mph 7.0 mph 72% 0.00 in
14:36 86.4 °F 76.7 °F 29.89 in SW 4.0 mph 12.0 mph 73% 0.00 in
14:41 86.3 °F 77.0 °F 29.88 in ESE 3.0 mph 7.0 mph 74% 0.00 in
14:46 86.3 °F 76.2 °F 29.89 in SW 5.0 mph 10.0 mph 72% 0.00 in
14:51 86.8 °F 77.1 °F 29.88 in South 8.0 mph 8.0 mph 73% 0.00 in
14:56 86.8 °F 76.7 °F 29.88 in SSE 3.0 mph 8.0 mph 72% 0.00 in
15:01 87.2 °F 77.5 °F 29.88 in SW 4.0 mph 8.0 mph 73% 0.00 in
15:06 87.6 °F 78.3 °F 29.88 in SW 3.0 mph 3.0 mph 74% 0.00 in
15:12 87.5 °F 77.4 °F 29.88 in SSW 6.0 mph 7.0 mph 72% 0.00 in
15:17 87.2 °F 77.9 °F 29.88 in WNW 3.0 mph 6.0 mph 74% 0.00 in
15:22 86.9 °F 77.2 °F 29.88 in SSW 4.0 mph 6.0 mph 73% 0.00 in
15:27 87.0 °F 77.3 °F 29.88 in SW 3.0 mph 5.0 mph 73% 0.00 in
15:32 87.5 °F 77.4 °F 29.88 in West 3.0 mph 8.0 mph 72% 0.00 in
15:37 87.4 °F 77.3 °F 29.88 in West 2.0 mph 5.0 mph 72% 0.00 in
15:42 87.2 °F 77.1 °F 29.88 in WSW 4.0 mph 7.0 mph 72% 0.00 in
15:47 87.5 °F 77.4 °F 29.88 in WSW 4.0 mph 6.0 mph 72% 0.00 in
15:52 87.6 °F 77.5 °F 29.88 in SSW 4.0 mph 5.0 mph 72% 0.00 in
15:57 87.1 °F 77.0 °F 29.88 in WSW 3.0 mph 5.0 mph 72% 0.00 in
16:02 86.8 °F 77.1 °F 29.88 in SE 2.0 mph 5.0 mph 73% 0.00 in
16:07 86.9 °F 77.2 °F 29.88 in WSW 4.0 mph 6.0 mph 73% 0.00 in
16:12 86.5 °F 77.2 °F 29.88 in SW 7.0 mph 7.0 mph 74% 0.00 in
16:17 87.1 °F 77.4 °F 29.88 in West 3.0 mph 6.0 mph 73% 0.00 in
16:22 86.9 °F 77.6 °F 29.88 in West 4.0 mph 6.0 mph 74% 0.00 in
16:27 86.7 °F 77.8 °F 29.88 in SW 5.0 mph 6.0 mph 75% 0.00 in
16:32 86.5 °F 77.2 °F 29.87 in SW 1.0 mph 7.0 mph 74% 0.00 in
16:37 86.5 °F 77.2 °F 29.87 in SSE 1.0 mph 3.0 mph 74% 0.00 in
16:42 86.6 °F 77.3 °F 29.87 in WSW 3.0 mph 7.0 mph 74% 0.00 in
16:47 87.2 °F 77.5 °F 29.87 in West 4.0 mph 10.0 mph 73% 0.00 in
16:52 87.3 °F 77.6 °F 29.87 in WSW 5.0 mph 7.0 mph 73% 0.00 in
16:57 87.3 °F 77.2 °F 29.87 in South 1.0 mph 7.0 mph 72% 0.00 in
17:02 87.5 °F 77.4 °F 29.87 in SSW 8.0 mph 11.0 mph 72% 0.00 in
17:07 87.9 °F 78.2 °F 29.87 in SW 5.0 mph 8.0 mph 73% 0.00 in
17:12 88.1 °F 77.5 °F 29.87 in SW 3.0 mph 6.0 mph 71% 0.00 in
17:17 87.9 °F 77.8 °F 29.87 in SW 4.0 mph 8.0 mph 72% 0.00 in
17:22 87.8 °F 78.1 °F 29.87 in SE 2.0 mph 5.0 mph 73% 0.00 in
17:27 88.3 °F 78.1 °F 29.86 in SSE 4.0 mph 7.0 mph 72% 0.00 in
17:32 88.4 °F 77.4 °F 29.86 in South 5.0 mph 7.0 mph 70% 0.00 in
17:37 88.5 °F 77.9 °F 29.86 in WSW 5.0 mph 9.0 mph 71% 0.00 in
17:42 88.3 °F 77.7 °F 29.86 in South 5.0 mph 7.0 mph 71% 0.00 in
17:48 88.4 °F 77.8 °F 29.86 in SSW 3.0 mph 6.0 mph 71% 0.00 in
17:53 88.6 °F 78.0 °F 29.86 in WSW 5.0 mph 6.0 mph 71% 0.00 in
17:58 88.6 °F 77.6 °F 29.86 in SW 3.0 mph 6.0 mph 70% 0.00 in
18:03 88.7 °F 78.1 °F 29.86 in SW 6.0 mph 7.0 mph 71% 0.00 in
18:08 88.2 °F 77.6 °F 29.86 in SW 3.0 mph 7.0 mph 71% 0.00 in
18:13 88.1 °F 78.4 °F 29.86 in SW 7.0 mph 9.0 mph 73% 0.00 in
18:18 88.1 °F 77.9 °F 29.86 in SW 5.0 mph 8.0 mph 72% 0.00 in
18:23 88.2 °F 78.0 °F 29.86 in SW 8.0 mph 8.0 mph 72% 0.00 in
18:28 87.8 °F 78.1 °F 29.85 in WSW 5.0 mph 8.0 mph 73% 0.00 in
18:33 87.5 °F 78.2 °F 29.85 in SW 5.0 mph 10.0 mph 74% 0.00 in
18:38 87.1 °F 78.2 °F 29.85 in West 4.0 mph 8.0 mph 75% 0.00 in
18:43 87.0 °F 78.5 °F 29.85 in SW 5.0 mph 8.0 mph 76% 0.00 in
18:48 86.9 °F 78.4 °F 29.85 in SSW 7.0 mph 10.0 mph 76% 0.00 in
18:53 86.5 °F 78.0 °F 29.85 in SW 4.0 mph 9.0 mph 76% 0.00 in
18:58 86.3 °F 78.6 °F 29.85 in WSW 5.0 mph 8.0 mph 78% 0.00 in
19:03 86.2 °F 77.8 °F 29.84 in SW 9.0 mph 10.0 mph 76% 0.00 in
19:08 86.0 °F 77.9 °F 29.85 in SW 7.0 mph 11.0 mph 77% 0.00 in
19:13 85.9 °F 78.2 °F 29.84 in SW 5.0 mph 9.0 mph 78% 0.00 in
19:19 86.1 °F 78.4 °F 29.84 in SSW 4.0 mph 8.0 mph 78% 0.00 in
19:24 85.9 °F 77.9 °F 29.85 in SSW 4.0 mph 7.0 mph 77% 0.00 in
19:29 86.0 °F 78.3 °F 29.85 in SSW 2.0 mph 7.0 mph 78% 0.00 in
19:34 85.9 °F 78.2 °F 29.85 in South 2.0 mph 7.0 mph 78% 0.00 in
19:39 85.7 °F 77.7 °F 29.85 in SSW 5.0 mph 7.0 mph 77% 0.00 in
19:44 85.4 °F 77.4 °F 29.85 in South 4.0 mph 6.0 mph 77% 0.00 in
19:49 85.3 °F 77.7 °F 29.86 in SSW 5.0 mph 7.0 mph 78% 0.00 in
19:54 85.1 °F 77.5 °F 29.86 in WSW 5.0 mph 9.0 mph 78% 0.00 in
19:59 85.0 °F 77.4 °F 29.86 in SW 2.0 mph 5.0 mph 78% 0.00 in
20:04 84.8 °F 77.2 °F 29.86 in SW 8.0 mph 8.0 mph 78% 0.00 in
20:09 84.2 °F 77.4 °F 29.86 in SSW 3.0 mph 4.0 mph 80% 0.00 in
20:14 83.8 °F 77.0 °F 29.87 in SSW 3.0 mph 7.0 mph 80% 0.00 in
20:19 83.2 °F 76.8 °F 29.87 in SW 4.0 mph 4.0 mph 81% 0.00 in
20:24 82.8 °F 76.4 °F 29.88 in SW 5.0 mph 6.0 mph 81% 0.00 in
20:29 82.4 °F 76.4 °F 29.87 in SW 4.0 mph 5.0 mph 82% 0.00 in
20:34 82.0 °F 76.3 °F 29.88 in SSW 3.0 mph 4.0 mph 83% 0.00 in
20:39 81.7 °F 76.4 °F 29.88 in SW 2.0 mph 4.0 mph 84% 0.00 in
20:44 81.5 °F 76.2 °F 29.88 in SSE 2.0 mph 2.0 mph 84% 0.00 in
20:49 81.2 °F 76.3 °F 29.88 in SE 2.0 mph 3.0 mph 85% 0.00 in
20:54 81.0 °F 76.1 °F 29.88 in SSW 2.0 mph 2.0 mph 85% 0.00 in
20:59 80.8 °F 75.9 °F 29.88 in SSW 1.0 mph 3.0 mph 85% 0.00 in
21:05 80.6 °F 76.0 °F 29.88 in SSW 2.0 mph 3.0 mph 86% 0.00 in
21:10 80.2 °F 75.6 °F 29.88 in SSW 1.0 mph 2.0 mph 86% 0.00 in
21:15 80.0 °F 75.8 °F 29.88 in Calm   1.0 mph 87% 0.00 in
21:20 79.8 °F 75.6 °F 29.88 in SSW 3.0 mph 3.0 mph 87% 0.00 in
21:25 79.8 °F 75.6 °F 29.88 in SW 1.0 mph 3.0 mph 87% 0.00 in
21:30 79.6 °F 75.7 °F 29.88 in Calm   1.0 mph 88% 0.00 in
21:35 79.4 °F 75.5 °F 29.89 in SSE 1.0 mph 1.0 mph 88% 0.00 in
21:40 79.2 °F 75.3 °F 29.89 in SSE 1.0 mph 2.0 mph 88% 0.00 in
21:45 79.1 °F 75.6 °F 29.89 in Calm   2.0 mph 89% 0.00 in
21:50 78.9 °F 75.4 °F 29.89 in SSE 1.0 mph 1.0 mph 89% 0.00 in
21:55 78.8 °F 75.3 °F 29.89 in SE 1.0 mph 3.0 mph 89% 0.00 in
22:00 78.7 °F 75.2 °F 29.90 in Calm   1.0 mph 89% 0.00 in
22:05 78.4 °F 74.9 °F 29.90 in Calm     89% 0.00 in
22:10 78.3 °F 75.1 °F 29.90 in Calm     90% 0.00 in
22:15 78.1 °F 74.9 °F 29.90 in Calm   1.0 mph 90% 0.00 in
22:20 78.0 °F 74.8 °F 29.90 in Calm     90% 0.00 in
22:25 77.8 °F 74.6 °F 29.90 in Calm     90% 0.00 in
22:30 77.8 °F 74.6 °F 29.90 in SSE 2.0 mph 2.0 mph 90% 0.00 in
22:35 78.0 °F 74.8 °F 29.90 in SSW 1.0 mph 2.0 mph 90% 0.00 in
22:40 78.0 °F 74.8 °F 29.90 in SSE 1.0 mph 2.0 mph 90% 0.00 in
22:45 78.1 °F 74.9 °F 29.90 in SW 4.0 mph 4.0 mph 90% 0.00 in
22:50 78.3 °F 75.1 °F 29.90 in WSW 3.0 mph 3.0 mph 90% 0.00 in
22:55 78.3 °F 75.1 °F 29.90 in SW 4.0 mph 5.0 mph 90% 0.00 in
23:00 78.2 °F 75.0 °F 29.90 in SW 2.0 mph 4.0 mph 90% 0.00 in
23:05 78.1 °F 74.9 °F 29.90 in SW 2.0 mph 4.0 mph 90% 0.00 in
23:10 78.1 °F 74.9 °F 29.90 in SW 2.0 mph 3.0 mph 90% 0.00 in
23:15 78.0 °F 74.8 °F 29.90 in SSW 1.0 mph 4.0 mph 90% 0.00 in
23:20 77.9 °F 75.1 °F 29.90 in SW 1.0 mph 2.0 mph 91% 0.00 in
23:25 77.8 °F 75.0 °F 29.91 in SSW 1.0 mph 1.0 mph 91% 0.00 in
23:30 77.8 °F 75.0 °F 29.90 in SSW 3.0 mph 3.0 mph 91% 0.00 in
23:35 77.7 °F 74.9 °F 29.90 in Calm   3.0 mph 91% 0.00 in
23:40 77.7 °F 74.9 °F 29.90 in WSW 1.0 mph 3.0 mph 91% 0.00 in
23:45 77.6 °F 74.8 °F 29.90 in Calm   2.0 mph 91% 0.00 in
23:50 77.6 °F 74.8 °F 29.90 in Calm   1.0 mph 91% 0.00 in
23:55 77.4 °F 74.6 °F 29.90 in SSW 2.0 mph 2.0 mph 91% 0.00 in
Compliments of Weather Underground